Flugplatz Roitzschjora

Für EDAW sind keine METAR/TAF Berichte vorhanden.
Es werden die Flugwettermeldungen vom Flugplatz Leipzig Halle in 24 km Entfernung angezeigt.

Bericht für EDDP

vom 23.05. um 18:20 UTC

Wind 5 kt aus 10°

Sichtweite 10 km oder mehr

gute Sicht, keine Wolken < 5000 ft, keine CB, keine Wettererscheinungen (CAVOK)

Temperatur 16.0°C

Taupunkt 8.0°C

Luftfeuchtigkeit 59%

Luftdruck 1017 hPa

keine wesentliche Wetteränderung innerhalb den nächsten 2 Stunden zu erwarten

EDDP 231820Z 01005KT CAVOK 16/08 Q1017 NOSIG

Prognose für EDDP

vom 23.05. um 17:00 UTC

Zwischen 18:00 und 21:00 UTC übergehend zu

variable Windrichtung mit 3 kt

Sichtweite 10 km oder mehr

keine signifikanten Wettererscheinungen

keine Wolken


Zwischen 18:00 UTC und 18:00 UTC

Wind 5 kt aus 360°

Sichtweite 10 km oder mehr

keine signifikanten Wettererscheinungen

keine Wolken


Am 24.05. zwischen 05:00 und 07:00 UTC übergehend zu

Wind 6 kt aus 200°

Sichtweite 10 km oder mehr

keine signifikanten Wettererscheinungen

keine Wolken


Am 24.05. zwischen 10:00 und 12:00 UTC übergehend zu

Wind 7 kt aus 270°

Sichtweite 10 km oder mehr

keine signifikanten Wettererscheinungen

keine Wolken

TAF EDDP 231700Z 2318/2418 36005KT CAVOK BECMG 2318/2321 VRB03KT BECMG 2405/2407 20006KT BECMG 2410/2412 27007KT
Impressum